»·PEaware :: N4922Z KSAN-KNLC

N4922Z :: KSAN-KNLC

FLIGHT INFORMATION

Flight Status: Arrived
Operator: Privately registered:
United States
More flights under this callsign
Pilot: William N. (15320)
Aircraft: MITSUBISHI MU-2 MARQUISE
(MU2)
More flights by this aircraft type
Origin: KSAN San Diego Intl-Lindbergh
United States
Destination: KNLC Lemoore NAS
United States
More flights between these airports :: More routes between these airports
Route: +PEBLE6 SLI V459 LHS EHF V23 PIXEY KNLC
File this flight plan on PilotEdge
Remarks:
Altitude:
(Current/Filed)
22,000ft
Speed:
(Current/Filed)
275kts
Departed: 11-May-18 12:28 PM
Arrived: 11-May-18 01:40 PM
Distance/Time
Traveled:
256nm/1:12
Distance/Time
To Go:
Arrived

Flight Plot

Page will automatically refresh every two minutes.

Flight plan parsing failed; only flown route is shown


Map Options




Map Legend


Flown Route
Filed Route
Departure Airport
Arrival Airport
Navaid (VOR, NDB)
Fix

Horizontal Profiles

Position Reports

Time Latitude Longitude Heading Altitude Ground
Speed
11-May-18 11:52 32.731811 -117.191215 150 17ft 0kts
11-May-18 11:53 32.731811 -117.191215 150 17ft 0kts
11-May-18 11:54 32.731810 -117.191215 152 17ft 0kts
11-May-18 11:55 32.731810 -117.191215 152 17ft 0kts
11-May-18 11:56 32.731810 -117.191215 152 17ft 0kts
11-May-18 11:57 32.731810 -117.191215 152 17ft 0kts
11-May-18 11:58 32.731810 -117.191215 152 17ft 0kts
11-May-18 11:59 32.731810 -117.191215 152 17ft 0kts
11-May-18 12:00 32.731810 -117.191215 152 17ft 0kts
11-May-18 12:01 32.731810 -117.191215 152 17ft 0kts
11-May-18 12:02 32.731810 -117.191215 152 17ft 0kts
11-May-18 12:03 32.731810 -117.191215 152 17ft 0kts
11-May-18 12:04 32.731810 -117.191215 152 17ft 0kts
11-May-18 12:05 32.731810 -117.191215 152 17ft 0kts
11-May-18 12:06 32.731810 -117.191215 152 17ft 0kts
11-May-18 12:07 32.731810 -117.191215 152 17ft 0kts
11-May-18 12:08 32.731810 -117.191215 152 17ft 0kts
11-May-18 12:09 32.731810 -117.191215 152 17ft 0kts
11-May-18 12:10 32.731810 -117.191215 152 17ft 0kts
11-May-18 12:11 32.731810 -117.191215 152 17ft 0kts
11-May-18 12:12 32.731810 -117.191215 152 17ft 0kts
11-May-18 12:13 32.731810 -117.191215 152 17ft 0kts
11-May-18 12:14 32.731810 -117.191215 152 17ft 0kts
11-May-18 12:15 32.731810 -117.191215 152 17ft 0kts
11-May-18 12:16 32.731810 -117.191215 152 17ft 0kts
11-May-18 12:17 32.731810 -117.191215 152 17ft 0kts
11-May-18 12:18 32.731810 -117.191215 152 17ft 0kts
11-May-18 12:19 32.731810 -117.191215 152 17ft 0kts
11-May-18 12:20 32.731810 -117.191215 151 17ft 0kts
11-May-18 12:21 32.731810 -117.191215 151 17ft 0kts
11-May-18 12:22 32.732606 -117.190073 97 17ft 14kts
11-May-18 12:23 32.731121 -117.183884 107 16ft 25kts
11-May-18 12:24 32.729603 -117.177716 108 16ft 1kts
11-May-18 12:25 32.729528 -117.176632 51 18ft 0kts
11-May-18 12:26 32.729544 -117.176611 47 18ft 0kts
11-May-18 12:27 32.730103 -117.176453 350 21ft 10kts
11-May-18 12:28 32.731901 -117.182787 286 17ft 119kts
11-May-18 12:29 32.753717 -117.228616 304 1951ft 180kts
11-May-18 12:30 32.784252 -117.272336 304 4433ft 170kts
11-May-18 12:31 32.814311 -117.313977 304 6792ft 166kts
11-May-18 12:32 32.844317 -117.355567 304 9061ft 171kts
11-May-18 12:33 32.875260 -117.399222 304 11368ft 176kts
11-May-18 12:34 32.907052 -117.443850 304 13685ft 179kts
11-May-18 12:35 32.952692 -117.478219 301 14968ft 224kts
11-May-18 12:36 32.991987 -117.547845 302 15318ft 264kts
11-May-18 12:37 33.030886 -117.610103 303 18072ft 218kts
11-May-18 12:38 33.066216 -117.665839 303 20209ft 211kts
11-May-18 12:39 33.100970 -117.721747 302 21948ft 225kts
11-May-18 12:40 33.132013 -117.773124 303 21984ft 273kts
11-May-18 12:41 33.189899 -117.832114 337 21980ft 311kts
11-May-18 12:42 33.273175 -117.864050 338 21965ft 318kts
11-May-18 12:43 33.355974 -117.894934 338 21963ft 311kts
11-May-18 12:44 33.438099 -117.925550 338 21963ft 309kts
11-May-18 12:45 33.511855 -117.953080 338 21963ft 308kts
11-May-18 12:46 33.592903 -117.983390 338 21963ft 308kts
11-May-18 12:47 33.674497 -118.013952 338 21947ft 310kts
11-May-18 12:48 33.755972 -118.044542 338 21945ft 311kts
11-May-18 12:49 33.834066 -118.082215 326 21954ft 304kts
11-May-18 12:50 33.904400 -118.126664 328 21952ft 304kts
11-May-18 12:51 33.979630 -118.172142 328 21943ft 305kts
11-May-18 12:52 34.055196 -118.217526 329 21943ft 305kts
11-May-18 12:53 34.130999 -118.262802 329 21944ft 304kts
11-May-18 12:54 34.207266 -118.304718 331 21970ft 303kts
11-May-18 12:55 34.283553 -118.347427 330 21979ft 302kts
11-May-18 12:56 34.359375 -118.390779 330 21979ft 302kts
11-May-18 12:57 34.435030 -118.434002 330 21978ft 301kts
11-May-18 12:58 34.510767 -118.477379 330 21978ft 301kts
11-May-18 12:59 34.586335 -118.520830 330 21933ft 302kts
11-May-18 13:00 34.662138 -118.564524 330 21931ft 302kts
11-May-18 13:01 34.737595 -118.608522 328 21932ft 300kts
11-May-18 13:02 34.807923 -118.654149 325 21933ft 296kts
11-May-18 13:03 34.877878 -118.700262 326 21937ft 297kts
11-May-18 13:04 34.950892 -118.746799 327 21937ft 297kts
11-May-18 13:05 35.011702 -118.785401 326 21936ft 296kts
11-May-18 13:06 35.084515 -118.831674 326 21892ft 296kts
11-May-18 13:07 35.150017 -118.873027 327 21824ft 297kts
11-May-18 13:08 35.223006 -118.919440 327 21818ft 295kts
11-May-18 13:09 35.295540 -118.965747 326 21817ft 293kts
11-May-18 13:10 35.367605 -119.011930 326 21817ft 292kts
11-May-18 13:11 35.439452 -119.058038 326 21816ft 291kts
11-May-18 13:12 35.511996 -119.101571 335 21819ft 296kts
11-May-18 13:13 35.584653 -119.145012 328 21815ft 292kts
11-May-18 13:14 35.658909 -119.185063 331 20271ft 287kts
11-May-18 13:15 35.730883 -119.221947 331 18212ft 274kts
11-May-18 13:16 35.799437 -119.256892 332 16063ft 262kts
11-May-18 13:17 35.865310 -119.290491 332 14052ft 250kts
11-May-18 13:18 35.928504 -119.322877 332 13982ft 251kts
11-May-18 13:19 35.993786 -119.356375 332 13990ft 256kts
11-May-18 13:20 36.059813 -119.390166 333 13984ft 258kts
11-May-18 13:21 36.099492 -119.445181 265 13970ft 225kts
11-May-18 13:22 36.087757 -119.522550 263 11675ft 246kts
11-May-18 13:23 36.074924 -119.609299 263 8917ft 265kts
11-May-18 13:24 36.062329 -119.696415 265 6749ft 253kts
11-May-18 13:25 36.110721 -119.720438 31 4722ft 251kts
11-May-18 13:26 36.162993 -119.672668 33 3975ft 205kts
11-May-18 13:27 36.190188 -119.623374 93 3971ft 171kts
11-May-18 13:28 36.154049 -119.610451 197 3697ft 161kts
11-May-18 13:29 36.101900 -119.627860 197 2026ft 216kts
11-May-18 13:30 36.086585 -119.682989 290 1826ft 187kts
11-May-18 13:31 36.105277 -119.744355 294 1818ft 187kts
11-May-18 13:32 36.126125 -119.799050 299 1811ft 157kts
11-May-18 13:33 36.143759 -119.841427 300 1808ft 120kts
11-May-18 13:34 36.170892 -119.859769 334 1690ft 114kts
11-May-18 13:35 36.206205 -119.876815 338 1819ft 147kts
11-May-18 13:36 36.243636 -119.892895 338 1813ft 133kts
11-May-18 13:37 36.276731 -119.909838 329 1586ft 123kts
11-May-18 13:38 36.304866 -119.928601 329 746ft 97kts
11-May-18 13:39 36.330489 -119.942245 333 263ft 98kts
11-May-18 13:40 36.340086 -119.946755 155 233ft 0kts
11-May-18 13:41 36.340078 -119.946750 156 233ft 0kts
11-May-18 13:42 36.340078 -119.946750 156 233ft 0kts
11-May-18 13:43 36.140916 -119.834533 299 1808ft 126kts
11-May-18 13:44 36.286736 -119.916861 329 1253ft 120kts
11-May-18 13:45 36.321982 -119.937560 331 354ft 101kts
11-May-18 13:46 36.340078 -119.946750 156 233ft 0kts
11-May-18 13:47 36.340078 -119.946750 156 233ft 0kts
11-May-18 13:48 36.340078 -119.946750 156 233ft 0kts
11-May-18 13:49 36.340078 -119.946750 156 233ft 0kts
11-May-18 13:50 36.340078 -119.946750 156 233ft 0kts
11-May-18 13:51 36.340078 -119.946750 156 233ft 0kts
11-May-18 13:52 36.340078 -119.946750 156 233ft 0kts
11-May-18 13:53 36.340078 -119.946750 156 233ft 0kts
11-May-18 13:54 36.340078 -119.946750 156 233ft 0kts

Navigation Log

Ident Type
Flight plan parsing failed, navigation log unavailable